Time;durP1;ratioP1;P1;durP2;ratioP2;P2;SDS_P1;SDS_P2;PMS_P1;PMS_P2;Temp;Humidity;BMP_temperature;BMP_pressure;BME280_temperature;BME280_humidity;BME280_pressure;Samples;Min_cycle;Max_cycle;Signal;HPM_P1;HPM_P2
2023/10/15 00:00:15;;;;;;;8.63;1.80;;;;;;;8.61;86.61;101462.63;10481295;28;20518;-61
2023/10/15 00:05:37;;;;;;;11.05;1.70;;;;;;;8.60;86.48;101473.81;10496975;28;20233;-61
2023/10/15 00:10:59;;;;;;;11.25;1.70;;;;;;;8.63;86.60;101474.66;10501387;28;20060;-61
2023/10/15 00:16:21;;;;;;;9.90;1.58;;;;;;;8.58;86.51;101479.00;10497637;28;20048;-61
2023/10/15 00:21:43;;;;;;;7.85;1.35;;;;;;;8.56;86.33;101488.50;10496229;28;20036;-61
2023/10/15 00:27:05;;;;;;;9.48;1.45;;;;;;;8.52;87.32;101463.59;10490419;28;20577;-61
2023/10/15 00:32:29;;;;;;;10.15;1.67;;;;;;;8.49;86.82;101457.63;10497361;28;20045;-61
2023/10/15 00:37:54;;;;;;;7.45;1.33;;;;;;;8.51;87.26;101461.03;10498262;28;20423;-61
2023/10/15 00:43:18;;;;;;;7.10;0.95;;;;;;;8.44;86.63;101460.22;10497363;28;20059;-61
2023/10/15 00:48:40;;;;;;;8.70;1.63;;;;;;;8.43;85.95;101453.38;10503014;28;20113;-61
2023/10/15 00:54:09;;;;;;;6.63;1.08;;;;;;;8.44;85.83;101457.66;10497266;28;20527;-61
2023/10/15 00:59:43;;;;;;;10.48;1.40;;;;;;;8.44;86.24;101491.19;10514357;28;20048;-61
2023/10/15 01:05:05;;;;;;;8.25;1.50;;;;;;;8.43;87.42;101523.00;10491173;28;20059;-61
2023/10/15 01:10:40;;;;;;;5.57;1.50;;;;;;;8.34;88.06;101515.38;10476131;28;20150;-61
2023/10/15 01:16:05;;;;;;;7.75;1.45;;;;;;;8.36;89.29;101498.16;10507232;28;20040;-62
2023/10/15 01:21:29;;;;;;;4.25;1.02;;;;;;;8.39;88.90;101482.66;10502842;28;20404;-61
2023/10/15 01:32:31;;;;;;;7.50;1.15;;;;;;;8.41;89.51;101480.06;10495397;28;20135;-61
2023/10/15 01:38:08;;;;;;;5.93;1.20;;;;;;;8.44;91.55;101480.88;10501815;28;20131;-61
2023/10/15 01:43:32;;;;;;;8.98;1.33;;;;;;;8.40;90.46;101488.66;10502661;28;20048;-61
2023/10/15 01:48:54;;;;;;;9.15;1.40;;;;;;;8.40;90.18;101470.63;10496617;28;20056;-61
2023/10/15 01:54:16;;;;;;;5.63;1.05;;;;;;;8.39;90.56;101486.97;10507597;28;20658;-62
2023/10/15 01:59:47;;;;;;;7.10;1.38;;;;;;;8.39;89.77;101500.69;10507918;28;20048;-61
2023/10/15 02:10:50;;;;;;;5.22;1.23;;;;;;;8.38;92.16;101558.31;10504884;28;20131;-61
2023/10/15 02:16:18;;;;;;;11.75;1.38;;;;;;;8.25;93.22;101530.94;10500066;28;20056;-61
2023/10/15 02:21:49;;;;;;;6.30;1.02;;;;;;;8.17;93.71;101501.75;10517487;28;20098;-61
2023/10/15 02:27:10;;;;;;;4.28;1.15;;;;;;;8.17;94.59;101512.06;10504719;28;20049;-61
2023/10/15 02:32:33;;;;;;;4.97;1.17;;;;;;;8.08;95.52;101512.13;10492554;28;20358;-61
2023/10/15 02:37:58;;;;;;;8.65;1.20;;;;;;;8.06;95.88;101508.72;10505312;28;20047;-61
2023/10/15 02:43:20;;;;;;;6.65;1.10;;;;;;;8.03;94.84;101503.59;10504663;28;20050;-61
2023/10/15 02:48:41;;;;;;;6.45;0.90;;;;;;;7.98;94.87;101526.00;10499083;28;20040;-61
2023/10/15 02:54:18;;;;;;;5.97;0.90;;;;;;;7.93;96.82;101495.09;10510783;28;20127;-61
2023/10/15 02:59:50;;;;;;;6.63;0.80;;;;;;;7.88;98.09;101472.81;10507289;28;20459;-61
2023/10/15 03:05:13;;;;;;;2.78;0.65;;;;;;;7.90;96.01;101489.13;10520038;27;20046;-61
2023/10/15 03:10:55;;;;;;;2.08;0.50;;;;;;;7.84;95.69;101489.16;10504214;28;20475;-61
2023/10/15 03:16:35;;;;;;;4.38;0.80;;;;;;;7.76;97.23;101498.69;10517121;27;20028;-61
2023/10/15 03:21:59;;;;;;;4.68;0.70;;;;;;;7.66;97.05;101523.66;10506155;28;20040;-61
2023/10/15 03:27:26;;;;;;;4.53;0.70;;;;;;;7.62;97.86;101532.25;10492095;28;20121;-61
2023/10/15 03:32:48;;;;;;;2.97;0.68;;;;;;;7.63;99.39;101538.28;10501671;28;20469;-61
2023/10/15 03:38:14;;;;;;;1.88;0.70;;;;;;;7.64;98.70;101545.13;10508286;28;20040;-61
2023/10/15 03:43:35;;;;;;;11.13;1.13;;;;;;;7.62;99.05;101529.69;10490513;28;20146;-62
2023/10/15 03:48:58;;;;;;;3.80;0.80;;;;;;;7.63;99.12;101520.25;10493169;28;20052;-61
2023/10/15 03:54:22;;;;;;;7.13;0.93;;;;;;;7.69;100.00;101512.47;10503207;28;20063;-61
2023/10/15 03:59:53;;;;;;;3.10;0.75;;;;;;;7.72;97.12;101525.31;10500588;28;20048;-61
2023/10/15 04:05:20;;;;;;;2.25;0.50;;;;;;;7.65;94.60;101505.63;10499767;28;20036;-61
2023/10/15 04:10:41;;;;;;;1.33;0.40;;;;;;;7.55;94.70;101483.38;10487109;28;20135;-61
2023/10/15 04:16:03;;;;;;;3.33;0.52;;;;;;;7.50;96.11;101472.25;10487944;28;20505;-61
2023/10/15 04:21:25;;;;;;;2.10;0.82;;;;;;;7.44;96.15;101464.56;10501707;28;20051;-61
2023/10/15 04:26:48;;;;;;;1.75;0.50;;;;;;;7.39;97.47;101467.19;10501423;28;20111;-65
2023/10/15 04:32:12;;;;;;;2.95;0.50;;;;;;;7.39;98.59;101479.19;10500069;28;20052;-61
2023/10/15 04:37:36;;;;;;;2.50;0.68;;;;;;;7.36;97.05;101492.09;10503247;28;20048;-61
2023/10/15 04:43:00;;;;;;;3.17;0.63;;;;;;;7.31;98.81;101493.88;10499610;28;20063;-61
2023/10/15 04:48:36;;;;;;;0.90;0.50;;;;;;;7.32;99.47;101496.41;10494929;28;20710;-61
2023/10/15 04:54:00;;;;;;;3.08;0.73;;;;;;;7.27;99.75;101497.31;10511170;28;20653;-61
2023/10/15 04:59:21;;;;;;;8.13;0.90;;;;;;;7.27;100.00;101517.91;10502319;28;20044;-61
2023/10/15 05:04:43;;;;;;;4.18;0.60;;;;;;;7.29;100.00;101526.47;10493983;28;20055;-61
2023/10/15 05:10:05;;;;;;;1.77;0.50;;;;;;;7.35;100.00;101523.84;10498764;28;20131;-61
2023/10/15 05:15:27;;;;;;;7.30;0.60;;;;;;;7.32;100.00;101527.31;10500199;28;20048;-61
2023/10/15 05:20:50;;;;;;;4.75;0.90;;;;;;;7.33;100.00;101529.00;10497461;28;20036;-61
2023/10/15 05:26:12;;;;;;;3.72;0.70;;;;;;;7.42;100.00;101515.22;10500336;28;20066;-61
2023/10/15 05:31:34;;;;;;;5.47;0.88;;;;;;;7.48;100.00;101517.75;10498164;28;20048;-61
2023/10/15 05:36:55;;;;;;;4.43;0.80;;;;;;;7.54;100.00;101512.59;10504954;28;20052;-61
2023/10/15 05:42:18;;;;;;;7.07;1.30;;;;;;;7.56;100.00;101504.00;10497145;28;20040;-61
2023/10/15 05:47:42;;;;;;;5.18;1.27;;;;;;;7.57;100.00;101497.09;10492697;28;20043;-61
2023/10/15 05:53:06;;;;;;;7.30;0.93;;;;;;;7.58;100.00;101509.13;10498810;28;20060;-61
2023/10/15 05:58:27;;;;;;;3.20;0.82;;;;;;;7.54;100.00;101517.72;10495532;28;20033;-61
2023/10/15 06:03:50;;;;;;;4.18;0.90;;;;;;;7.51;100.00;101528.88;10490648;28;20492;-61
2023/10/15 06:09:11;;;;;;;3.88;0.90;;;;;;;7.56;100.00;101546.91;10498387;28;20501;-61
2023/10/15 06:14:33;;;;;;;3.45;0.85;;;;;;;7.56;100.00;101560.66;10495240;28;20158;-61
2023/10/15 06:19:54;;;;;;;5.82;0.90;;;;;;;7.64;100.00;101586.31;10503480;28;20044;-61
2023/10/15 06:25:17;;;;;;;3.70;0.95;;;;;;;7.57;100.00;101602.69;10501776;28;20052;-61
2023/10/15 06:30:44;;;;;;;3.05;0.80;;;;;;;7.56;100.00;101614.72;10488206;28;20045;-62
2023/10/15 06:36:07;;;;;;;6.03;0.70;;;;;;;7.48;100.00;101624.19;10501724;28;20048;-61
2023/10/15 06:41:28;;;;;;;7.25;0.80;;;;;;;7.48;100.00;101628.47;10500172;28;20052;-62
2023/10/15 06:46:50;;;;;;;4.32;0.77;;;;;;;7.52;100.00;101599.28;10509637;28;20064;-61
2023/10/15 06:52:13;;;;;;;3.28;0.68;;;;;;;7.54;100.00;101574.38;10510018;28;20076;-61
2023/10/15 06:57:38;;;;;;;2.05;0.63;;;;;;;7.54;100.00;101584.69;10500455;28;20047;-61
2023/10/15 07:03:00;;;;;;;1.85;0.70;;;;;;;7.56;100.00;101582.94;10504051;28;20526;-61
2023/10/15 07:08:22;;;;;;;1.05;0.52;;;;;;;7.59;100.00;101588.06;10509057;28;20500;-61
2023/10/15 07:13:44;;;;;;;0.82;0.43;;;;;;;7.62;100.00;101588.03;10503025;28;20063;-61
2023/10/15 07:19:08;;;;;;;1.85;0.70;;;;;;;7.62;100.00;101600.91;10503958;28;20047;-61
2023/10/15 07:24:31;;;;;;;1.40;0.50;;;;;;;7.62;100.00;101593.19;10500067;28;20044;-61
2023/10/15 07:29:52;;;;;;;5.78;0.60;;;;;;;7.64;100.00;101605.22;10503129;28;20396;-61
2023/10/15 07:35:15;;;;;;;3.63;0.88;;;;;;;7.73;100.00;101617.19;10497871;28;20128;-61
2023/10/15 07:40:37;;;;;;;5.78;0.88;;;;;;;7.74;100.00;101604.31;10491433;28;20048;-61
2023/10/15 07:45:59;;;;;;;5.45;1.00;;;;;;;7.81;100.00;101620.56;10497824;28;20048;-61
2023/10/15 07:51:21;;;;;;;2.08;0.70;;;;;;;7.94;100.00;101633.38;10502055;28;20461;-61
2023/10/15 07:56:45;;;;;;;2.92;0.80;;;;;;;8.13;100.00;101647.84;10509729;27;20045;-61
2023/10/15 08:02:07;;;;;;;6.07;0.80;;;;;;;8.20;100.00;101658.97;10493767;28;20421;-61
2023/10/15 08:07:29;;;;;;;6.68;1.05;;;;;;;8.23;100.00;101665.81;10501203;28;20074;-61
2023/10/15 08:12:51;;;;;;;2.85;0.95;;;;;;;8.29;100.00;101699.34;10502237;28;20037;-61
2023/10/15 08:18:13;;;;;;;3.58;1.10;;;;;;;8.41;100.00;101713.00;10492608;28;20055;-61
2023/10/15 08:23:37;;;;;;;8.10;1.50;;;;;;;8.47;100.00;101712.97;10516737;27;20068;-63
2023/10/15 08:28:58;;;;;;;3.63;1.40;;;;;;;8.49;100.00;101713.81;10493290;28;20036;-61
2023/10/15 08:34:23;;;;;;;3.67;1.30;;;;;;;8.44;100.00;101723.28;10485712;28;20463;-61
2023/10/15 08:39:45;;;;;;;6.68;1.00;;;;;;;8.42;100.00;101682.91;10488568;28;20521;-62
2023/10/15 08:45:08;;;;;;;7.45;0.90;;;;;;;8.44;100.00;101701.81;10469966;28;20051;-62
2023/10/15 08:50:31;;;;;;;6.15;0.90;;;;;;;8.37;100.00;101695.00;10481054;28;20126;-61
2023/10/15 08:55:57;;;;;;;5.25;0.80;;;;;;;8.33;100.00;101701.03;10483032;28;20404;-66
2023/10/15 09:01:20;;;;;;;4.68;1.00;;;;;;;8.39;100.00;101714.72;10483485;28;20478;-61
2023/10/15 09:06:43;;;;;;;7.30;1.20;;;;;;;8.45;100.00;101725.00;10490159;28;20131;-61
2023/10/15 09:12:06;;;;;;;3.85;0.80;;;;;;;8.53;100.00;101743.88;10485558;28;20040;-62
2023/10/15 09:17:28;;;;;;;3.83;0.73;;;;;;;8.57;99.37;101739.56;10488549;28;20090;-62
2023/10/15 09:22:49;;;;;;;3.90;0.80;;;;;;;8.64;99.52;101736.91;10478272;28;20524;-62
2023/10/15 09:28:12;;;;;;;13.40;1.00;;;;;;;8.79;100.00;101733.38;10490099;28;20036;-62
2023/10/15 09:33:35;;;;;;;5.72;1.08;;;;;;;8.91;99.32;101772.81;10483419;28;20040;-62
2023/10/15 09:38:57;;;;;;;3.60;1.00;;;;;;;9.00;99.12;101808.88;10491039;28;20537;-62
2023/10/15 09:44:19;;;;;;;4.88;0.95;;;;;;;8.98;99.18;101789.97;10477967;28;20129;-61
2023/10/15 09:49:42;;;;;;;3.65;0.88;;;;;;;8.89;95.00;101802.09;10485860;28;20648;-62
2023/10/15 09:55:11;;;;;;;1.40;0.60;;;;;;;8.92;95.29;101820.97;10482912;28;20059;-62
2023/10/15 10:00:46;;;;;;;2.55;0.93;;;;;;;8.90;96.84;101827.88;10491394;28;20071;-62
2023/10/15 10:06:39;;;;;;;1.70;0.90;;;;;;;8.86;96.52;101838.25;10499632;28;20044;-62
2023/10/15 10:12:19;;;;;;;4.85;1.25;;;;;;;8.84;97.94;101825.34;10490786;28;20063;-62
2023/10/15 10:17:42;;;;;;;3.83;0.90;;;;;;;8.88;97.05;101828.78;10482679;28;20185;-62
2023/10/15 10:23:07;;;;;;;1.25;0.63;;;;;;;8.88;95.77;101823.59;10485133;28;20497;-62
2023/10/15 10:28:31;;;;;;;4.18;0.82;;;;;;;8.90;94.58;101822.72;10497242;28;20555;-61
2023/10/15 10:33:56;;;;;;;3.90;0.82;;;;;;;9.05;94.50;101843.25;10506334;28;20045;-62
2023/10/15 10:39:18;;;;;;;4.95;0.90;;;;;;;9.12;92.87;101832.00;10509960;28;20081;-62
2023/10/15 10:44:39;;;;;;;2.33;0.70;;;;;;;9.16;93.95;101840.59;10508497;28;20044;-62
2023/10/15 10:50:03;;;;;;;3.10;0.70;;;;;;;9.23;93.99;101862.06;10506363;28;20052;-62
2023/10/15 10:55:32;;;;;;;1.40;0.60;;;;;;;9.20;94.21;101862.06;10498826;28;20049;-62
2023/10/15 11:00:54;;;;;;;1.48;0.68;;;;;;;9.04;93.38;101846.72;10483461;28;20056;-62
2023/10/15 11:06:16;;;;;;;2.58;0.82;;;;;;;8.88;93.23;101847.66;10515186;27;20542;-62
2023/10/15 11:11:38;;;;;;;3.08;0.80;;;;;;;8.81;95.75;101852.88;10497660;28;20139;-62
2023/10/15 11:16:59;;;;;;;3.25;0.77;;;;;;;8.82;96.18;101852.91;10505136;28;20063;-62
2023/10/15 11:22:21;;;;;;;1.75;0.50;;;;;;;8.77;95.06;101853.78;10508047;28;20048;-62
2023/10/15 11:27:43;;;;;;;2.08;0.50;;;;;;;8.77;95.37;101864.94;10496822;28;20048;-62
2023/10/15 11:33:07;;;;;;;1.33;0.60;;;;;;;8.86;93.93;101851.16;10518386;27;20078;-62
2023/10/15 11:38:33;;;;;;;0.55;0.30;;;;;;;8.92;92.27;101867.44;10501924;28;20451;-62
2023/10/15 11:43:55;;;;;;;0.90;0.30;;;;;;;9.02;92.59;101863.94;10510244;28;20044;-62
2023/10/15 11:49:22;;;;;;;0.57;0.30;;;;;;;9.10;93.90;101859.56;10506332;28;20064;-62
2023/10/15 11:54:49;;;;;;;1.80;0.50;;;;;;;9.23;93.19;101862.91;10500408;28;20051;-62
2023/10/15 12:00:22;;;;;;;1.00;0.50;;;;;;;9.31;94.06;101850.78;10505716;28;20110;-62
2023/10/15 12:05:45;;;;;;;2.15;0.60;;;;;;;9.47;93.58;101867.88;10508327;28;20047;-63
2023/10/15 12:11:08;;;;;;;2.78;0.57;;;;;;;9.52;93.22;101860.94;10503978;28;20052;-62
2023/10/15 12:16:30;;;;;;;3.92;0.70;;;;;;;9.58;92.93;101896.19;10489236;28;20396;-61
2023/10/15 12:21:52;;;;;;;5.10;1.10;;;;;;;9.52;92.97;101885.94;10495876;28;20144;-62
2023/10/15 12:27:13;;;;;;;5.82;0.85;;;;;;;9.45;92.63;101863.59;10497759;28;20040;-62
2023/10/15 12:32:35;;;;;;;7.70;0.75;;;;;;;9.36;88.59;101848.19;10502911;28;20527;-62
2023/10/15 12:38:12;;;;;;;2.25;0.68;;;;;;;9.38;87.52;101854.16;10500312;28;20131;-63
2023/10/15 12:43:34;;;;;;;5.72;1.15;;;;;;;9.45;89.54;101858.44;10499018;28;20058;-62
2023/10/15 12:49:00;;;;;;;3.85;0.65;;;;;;;9.49;90.33;101854.94;10500040;28;20130;-62
2023/10/15 12:54:22;;;;;;;3.13;0.57;;;;;;;9.69;90.68;101876.28;10488655;28;20044;-62
2023/10/15 12:59:43;;;;;;;2.90;0.50;;;;;;;9.88;90.08;101904.53;10492781;28;20036;-62
2023/10/15 13:05:05;;;;;;;4.50;0.70;;;;;;;9.92;88.75;101924.31;10500829;28;20052;-62
2023/10/15 13:10:28;;;;;;;2.08;0.80;;;;;;;9.74;92.49;101923.63;10484077;28;20060;-62
2023/10/15 13:15:49;;;;;;;3.70;0.70;;;;;;;9.45;94.19;101925.59;10484993;28;20051;-63
2023/10/15 13:21:11;;;;;;;3.55;1.08;;;;;;;9.17;93.98;101909.44;10485633;28;20067;-63
2023/10/15 13:26:33;;;;;;;6.00;0.75;;;;;;;9.00;95.24;101909.56;10483459;28;20060;-62
2023/10/15 13:31:54;;;;;;;4.25;0.70;;;;;;;8.92;96.08;101907.88;10484631;28;20131;-62
2023/10/15 13:37:17;;;;;;;5.25;0.77;;;;;;;8.94;96.71;101899.25;10486767;28;20052;-62
2023/10/15 13:42:47;;;;;;;4.55;0.80;;;;;;;9.04;98.18;101919.00;10490012;28;20044;-63
2023/10/15 13:48:10;;;;;;;2.30;1.05;;;;;;;9.09;96.68;101912.09;10481160;28;20064;-63
2023/10/15 13:53:35;;;;;;;3.13;1.13;;;;;;;9.21;97.72;101915.44;10498812;28;20048;-62
2023/10/15 13:58:57;;;;;;;9.67;1.67;;;;;;;9.37;95.13;101906.72;10490875;28;20477;-62
2023/10/15 14:04:19;;;;;;;6.53;1.27;;;;;;;9.55;96.92;101912.59;10498574;28;20048;-62
2023/10/15 14:09:40;;;;;;;5.97;1.00;;;;;;;9.71;94.99;101918.47;10497911;28;20135;-62
2023/10/15 14:15:03;;;;;;;5.68;1.30;;;;;;;9.87;96.98;101914.91;10486234;28;20044;-62
2023/10/15 14:20:25;;;;;;;6.25;1.30;;;;;;;10.01;97.62;101913.03;10494389;28;20048;-63
2023/10/15 14:25:48;;;;;;;4.70;1.23;;;;;;;10.14;93.82;101907.72;10496265;28;20053;-62
2023/10/15 14:31:10;;;;;;;6.57;1.38;;;;;;;10.21;92.03;101915.41;10509032;27;20055;-62
2023/10/15 14:36:36;;;;;;;5.85;1.17;;;;;;;10.23;95.13;101950.75;10496482;28;20757;-63
2023/10/15 14:41:58;;;;;;;6.28;1.20;;;;;;;10.14;90.56;101940.50;10507399;28;20056;-62
2023/10/15 14:47:20;;;;;;;6.85;1.40;;;;;;;9.99;86.90;101932.84;10492177;28;20048;-62
2023/10/15 14:52:41;;;;;;;8.70;1.52;;;;;;;9.99;86.27;101938.03;10494682;28;20229;-62
2023/10/15 14:58:06;;;;;;;4.18;1.05;;;;;;;9.98;82.52;101931.16;10489628;28;20157;-63
2023/10/15 15:03:28;;;;;;;7.82;1.17;;;;;;;9.97;83.08;101932.03;10493265;28;20519;-63
2023/10/15 15:08:49;;;;;;;4.07;0.98;;;;;;;9.93;82.90;101943.25;10500279;28;20060;-62
2023/10/15 15:14:13;;;;;;;6.40;1.35;;;;;;;9.91;82.42;101947.56;10483255;28;20186;-62
2023/10/15 15:19:35;;;;;;;4.72;1.35;;;;;;;9.89;83.74;101945.00;10495431;28;20043;-62
2023/10/15 15:24:57;;;;;;;6.63;1.20;;;;;;;9.86;85.64;101951.94;10468894;28;20040;-62
2023/10/15 15:30:19;;;;;;;6.20;1.50;;;;;;;9.81;84.84;101952.00;10491006;28;20066;-62
2023/10/15 15:35:47;;;;;;;7.45;1.30;;;;;;;9.77;84.63;101964.94;10487185;28;20059;-62
2023/10/15 15:41:10;;;;;;;5.47;1.52;;;;;;;9.76;85.36;101955.50;10493687;28;20056;-62
2023/10/15 15:46:37;;;;;;;7.95;1.58;;;;;;;9.75;86.04;101972.72;10485625;28;20142;-62
2023/10/15 15:51:59;;;;;;;5.95;1.67;;;;;;;9.76;85.82;101973.59;10481412;28;20054;-62
2023/10/15 15:57:20;;;;;;;9.20;2.10;;;;;;;9.72;85.97;101977.06;10478800;28;20052;-62
2023/10/15 16:02:42;;;;;;;5.38;1.80;;;;;;;9.69;86.46;101977.06;10492392;28;20415;-62
2023/10/15 16:08:05;;;;;;;8.20;1.70;;;;;;;9.67;87.11;101992.59;10487171;28;20047;-61
2023/10/15 16:13:28;;;;;;;7.88;1.67;;;;;;;9.65;86.21;102002.06;10491885;28;20693;-62
2023/10/15 16:18:49;;;;;;;6.20;1.60;;;;;;;9.62;85.87;102011.56;10477651;28;20036;-63
2023/10/15 16:24:11;;;;;;;6.95;1.30;;;;;;;9.56;84.80;102006.47;10484289;28;20054;-62
2023/10/15 16:29:37;;;;;;;14.52;1.80;;;;;;;9.50;83.95;102002.22;10487238;28;20049;-62
2023/10/15 16:34:58;;;;;;;2.40;1.00;;;;;;;9.47;84.64;102011.72;10481594;28;20288;-61
2023/10/15 16:40:21;;;;;;;8.82;1.15;;;;;;;9.36;84.28;102021.25;10495393;28;20131;-62
2023/10/15 16:45:44;;;;;;;7.40;1.27;;;;;;;9.30;85.53;102035.06;10493154;28;20044;-62
2023/10/15 16:51:06;;;;;;;9.63;1.40;;;;;;;9.21;85.86;102034.22;10489795;28;20143;-62
2023/10/15 16:56:47;;;;;;;9.18;1.55;;;;;;;9.14;86.54;102038.56;10491973;28;20052;-62
2023/10/15 17:02:08;;;;;;;8.40;1.55;;;;;;;9.08;86.97;102059.25;10492392;28;20056;-62
2023/10/15 17:07:30;;;;;;;7.10;1.50;;;;;;;9.07;87.01;102063.56;10488973;28;20094;-61
2023/10/15 17:12:52;;;;;;;5.88;1.67;;;;;;;9.03;88.03;102077.34;10487345;28;20040;-62
2023/10/15 17:18:14;;;;;;;7.25;1.77;;;;;;;8.99;87.75;102073.03;10494004;28;20048;-61
2023/10/15 17:23:36;;;;;;;6.18;1.63;;;;;;;8.93;87.96;102080.81;10487964;28;21731;-62
2023/10/15 17:28:57;;;;;;;6.80;1.63;;;;;;;8.92;87.72;102073.94;10487262;28;20533;-61
2023/10/15 17:34:20;;;;;;;6.68;1.63;;;;;;;8.89;88.44;102068.78;10480929;28;20497;-62
2023/10/15 17:39:42;;;;;;;7.55;1.90;;;;;;;8.89;88.27;102066.22;10481403;28;20051;-62
2023/10/15 17:45:04;;;;;;;7.85;1.80;;;;;;;8.81;88.75;102073.09;10492231;28;20064;-62
2023/10/15 17:50:28;;;;;;;4.38;1.75;;;;;;;8.77;88.40;102068.81;10489030;28;20040;-62
2023/10/15 17:55:50;;;;;;;6.57;1.67;;;;;;;8.72;90.11;102091.19;10492173;28;20052;-61
2023/10/15 18:01:13;;;;;;;3.83;1.52;;;;;;;8.70;88.48;102094.63;10473508;28;20051;-62
2023/10/15 18:06:36;;;;;;;7.30;2.08;;;;;;;8.64;88.73;102094.66;10474421;28;20135;-61
2023/10/15 18:11:58;;;;;;;9.32;2.25;;;;;;;8.59;87.83;102102.38;10486818;28;20059;-62
2023/10/15 18:17:23;;;;;;;5.45;1.70;;;;;;;8.56;88.95;102096.38;10478385;28;20116;-62
2023/10/15 18:22:47;;;;;;;6.10;1.50;;;;;;;8.50;88.81;102093.78;10497083;28;20135;-62
2023/10/15 18:28:09;;;;;;;7.32;1.63;;;;;;;8.47;88.42;102099.84;10502154;28;20044;-62
2023/10/15 18:33:31;;;;;;;7.63;1.63;;;;;;;8.45;88.78;102091.25;10502043;28;20765;-62
2023/10/15 18:38:55;;;;;;;5.25;1.75;;;;;;;8.39;88.69;102091.22;10510478;28;20040;-61
2023/10/15 18:44:20;;;;;;;3.92;1.60;;;;;;;8.45;88.86;102111.00;10506002;28;20392;-61
2023/10/15 18:49:44;;;;;;;6.75;1.50;;;;;;;8.37;88.98;102118.75;10512740;27;20040;-61
2023/10/15 18:55:06;;;;;;;9.18;1.60;;;;;;;8.35;89.32;102101.56;10506009;28;20077;-62
2023/10/15 19:00:28;;;;;;;7.55;1.40;;;;;;;8.27;89.06;102114.47;10507834;28;20044;-61
2023/10/15 19:05:50;;;;;;;5.72;1.38;;;;;;;8.27;89.30;102100.69;10505525;28;20060;-61
2023/10/15 19:11:14;;;;;;;6.50;1.40;;;;;;;8.25;89.21;102112.72;10502120;28;20076;-62
2023/10/15 19:16:36;;;;;;;6.90;1.52;;;;;;;8.23;90.13;102125.59;10515394;28;20095;-63
2023/10/15 19:21:58;;;;;;;6.38;1.40;;;;;;;8.23;90.52;102125.59;10502143;28;20053;-62
2023/10/15 19:27:20;;;;;;;6.45;1.40;;;;;;;8.21;90.64;102124.72;10512181;28;20044;-61
2023/10/15 19:32:42;;;;;;;4.38;1.38;;;;;;;8.20;91.02;102135.91;10497898;28;20052;-61
2023/10/15 19:38:03;;;;;;;5.47;1.30;;;;;;;8.22;91.60;102141.94;10508680;28;20386;-61
2023/10/15 19:43:28;;;;;;;7.80;1.60;;;;;;;8.23;91.19;102143.63;10486216;28;20044;-62
2023/10/15 19:48:50;;;;;;;6.22;1.63;;;;;;;8.22;91.67;102152.25;10501900;28;20131;-61
2023/10/15 19:54:12;;;;;;;9.68;1.77;;;;;;;8.17;91.90;102160.84;10496832;28;20548;-61
2023/10/15 19:59:34;;;;;;;3.55;1.33;;;;;;;8.12;91.62;102158.25;10493914;28;20046;-61
2023/10/15 20:04:55;;;;;;;9.35;1.63;;;;;;;8.11;91.57;102167.69;10507687;28;20500;-61
2023/10/15 20:10:17;;;;;;;7.43;1.45;;;;;;;8.08;91.18;102161.66;10494513;28;20591;-62
2023/10/15 20:15:39;;;;;;;3.85;1.30;;;;;;;8.04;91.84;102175.41;10499630;28;20056;-62
2023/10/15 20:21:00;;;;;;;7.20;1.48;;;;;;;7.97;91.35;102173.66;10498059;28;20045;-62
2023/10/15 20:26:22;;;;;;;8.07;1.60;;;;;;;7.95;91.92;102170.22;10507946;28;20044;-62
2023/10/15 20:31:44;;;;;;;6.05;1.27;;;;;;;7.94;90.85;102177.13;10501520;28;20396;-62
2023/10/15 20:37:05;;;;;;;8.98;1.30;;;;;;;7.88;91.58;102187.41;10501405;28;20408;-62
2023/10/15 20:42:29;;;;;;;10.07;1.58;;;;;;;7.89;91.95;102196.00;10504984;28;20428;-62
2023/10/15 20:47:52;;;;;;;3.17;0.95;;;;;;;7.88;91.47;102189.97;10511978;28;20068;-62
2023/10/15 20:53:14;;;;;;;6.68;1.40;;;;;;;7.88;92.11;102207.16;10505378;28;20068;-62
2023/10/15 20:58:35;;;;;;;5.43;1.40;;;;;;;7.84;91.92;102197.69;10498219;28;20045;-62
2023/10/15 21:03:57;;;;;;;4.03;1.40;;;;;;;7.79;91.69;102196.81;10500392;28;20048;-62
2023/10/15 21:09:20;;;;;;;4.88;1.35;;;;;;;7.74;92.29;102183.94;10501480;28;20086;-62
2023/10/15 21:14:42;;;;;;;4.57;1.17;;;;;;;7.64;92.78;102168.41;10498959;28;20520;-61
2023/10/15 21:20:10;;;;;;;7.63;1.50;;;;;;;7.65;92.92;102178.75;10506485;28;20493;-62
2023/10/15 21:25:33;;;;;;;12.05;1.20;;;;;;;7.67;93.19;102173.59;10501347;28;20444;-62
2023/10/15 21:30:54;;;;;;;5.75;1.02;;;;;;;7.69;93.55;102174.47;10489343;28;20044;-62
2023/10/15 21:36:16;;;;;;;5.35;1.10;;;;;;;7.71;94.07;102170.19;10503910;28;20110;-62
2023/10/15 21:41:38;;;;;;;5.03;1.13;;;;;;;7.63;94.20;102167.56;10499859;28;20044;-61
2023/10/15 21:46:59;;;;;;;8.38;1.23;;;;;;;7.56;93.32;102171.00;10494062;28;20496;-61
2023/10/15 21:52:21;;;;;;;6.80;1.10;;;;;;;7.58;93.45;102173.56;10500207;28;20044;-61
2023/10/15 21:57:43;;;;;;;7.07;1.40;;;;;;;7.52;94.17;102178.69;10498434;28;20047;-61
2023/10/15 22:03:05;;;;;;;4.00;1.10;;;;;;;7.52;94.19;102168.38;10496765;28;20499;-62
2023/10/15 22:08:28;;;;;;;6.90;1.25;;;;;;;7.55;94.10;102183.84;10506447;28;20104;-62
2023/10/15 22:13:58;;;;;;;5.13;1.45;;;;;;;7.56;94.57;102175.28;10499832;28;20067;-61
2023/10/15 22:19:22;;;;;;;8.38;1.48;;;;;;;7.63;95.10;102172.72;10501149;28;20135;-61
2023/10/15 22:24:43;;;;;;;7.57;1.50;;;;;;;7.60;96.35;102166.72;10491387;28;20060;-61
2023/10/15 22:30:06;;;;;;;5.63;1.33;;;;;;;7.57;97.01;102157.25;10499338;28;20040;-61
2023/10/15 22:35:29;;;;;;;4.03;1.20;;;;;;;7.58;97.26;102169.25;10500830;28;20048;-63
2023/10/15 22:40:50;;;;;;;3.78;1.25;;;;;;;7.58;97.22;102160.69;10509188;28;20043;-61
2023/10/15 22:46:13;;;;;;;5.15;1.10;;;;;;;7.58;97.59;102156.38;10497870;28;20052;-61
2023/10/15 22:51:35;;;;;;;8.52;1.30;;;;;;;7.56;97.08;102157.25;10511569;28;20047;-61
2023/10/15 22:56:57;;;;;;;6.22;1.65;;;;;;;7.58;97.45;102158.09;10499915;28;20056;-61
2023/10/15 23:02:18;;;;;;;5.00;1.15;;;;;;;7.56;97.77;102157.25;10496836;28;20070;-61
2023/10/15 23:07:40;;;;;;;4.38;0.93;;;;;;;7.47;97.09;102167.50;10511227;28;20117;-61
2023/10/15 23:13:02;;;;;;;10.23;1.10;;;;;;;7.49;97.38;102152.94;10505157;28;20385;-61
2023/10/15 23:18:24;;;;;;;7.63;1.30;;;;;;;7.46;97.06;102158.03;10507340;28;20102;-61
2023/10/15 23:23:46;;;;;;;6.70;1.15;;;;;;;7.45;97.07;102161.47;10496866;28;20131;-61
2023/10/15 23:29:07;;;;;;;4.28;1.10;;;;;;;7.42;97.28;102156.31;10509320;28;20036;-61
2023/10/15 23:34:29;;;;;;;6.57;1.33;;;;;;;7.40;98.71;102158.88;10501840;28;20500;-61
2023/10/15 23:39:50;;;;;;;5.85;1.30;;;;;;;7.47;97.37;102154.63;10504995;28;20125;-61
2023/10/15 23:45:12;;;;;;;7.55;1.40;;;;;;;7.51;97.76;102156.38;10497305;28;20055;-61
2023/10/15 23:50:34;;;;;;;7.55;1.40;;;;;;;7.51;98.09;102157.22;10511048;28;20961;-61
2023/10/15 23:56:12;;;;;;;6.00;1.10;;;;;;;7.53;99.17;102164.94;10507204;28;21816;-61
